createdAt,value
2019-03-29T00:00:19.773Z,99.90
2019-03-29T00:02:50.518Z,99.90
2019-03-29T00:05:20.047Z,99.90
2019-03-29T00:07:49.525Z,99.90
2019-03-29T00:10:18.979Z,99.90
2019-03-29T00:12:48.464Z,99.90
2019-03-29T00:15:17.919Z,99.90
2019-03-29T00:17:47.402Z,99.90
2019-03-29T00:20:16.850Z,99.90
2019-03-29T00:22:46.337Z,99.90
2019-03-29T00:25:15.794Z,99.90
2019-03-29T00:27:45.259Z,99.90
2019-03-29T00:30:14.852Z,99.90
2019-03-29T00:32:44.330Z,99.90
2019-03-29T00:35:13.851Z,99.90
2019-03-29T00:37:53.287Z,99.90
2019-03-29T00:40:14.407Z,99.90
2019-03-29T00:42:43.888Z,99.90
2019-03-29T00:45:14.680Z,99.90
2019-03-29T00:47:44.384Z,99.90
2019-03-29T00:50:13.834Z,99.90
2019-03-29T00:52:43.583Z,99.90
2019-03-29T00:55:13.175Z,99.90
2019-03-29T00:57:42.659Z,99.90
2019-03-29T01:00:12.189Z,99.90
2019-03-29T01:02:41.671Z,99.90
2019-03-29T01:05:11.195Z,99.90
2019-03-29T01:07:40.671Z,99.90
2019-03-29T01:10:10.365Z,99.90
2019-03-29T01:12:39.843Z,99.90
2019-03-29T01:15:09.549Z,99.90
2019-03-29T01:17:39.036Z,99.90
2019-03-29T01:20:10.182Z,99.90
2019-03-29T01:22:39.670Z,99.90
2019-03-29T01:25:09.261Z,99.90
2019-03-29T01:27:38.734Z,99.90
2019-03-29T01:30:08.537Z,99.90
2019-03-29T01:32:38.018Z,99.90
2019-03-29T01:35:09.082Z,99.90
2019-03-29T01:37:38.693Z,99.90
2019-03-29T01:40:09.126Z,99.90
2019-03-29T01:42:38.863Z,99.90
2019-03-29T01:45:08.856Z,99.90
2019-03-29T01:47:38.330Z,99.90
2019-03-29T01:50:09.192Z,99.90
2019-03-29T01:52:38.659Z,99.90
2019-03-29T01:55:08.356Z,99.90
2019-03-29T01:57:37.831Z,99.90
2019-03-29T02:00:09.068Z,99.90
2019-03-29T02:02:38.775Z,99.90
2019-03-29T02:05:08.370Z,99.90
2019-03-29T02:07:38.224Z,99.90
2019-03-29T02:10:09.644Z,99.90
2019-03-29T02:12:39.106Z,99.90
2019-03-29T02:15:09.885Z,99.90
2019-03-29T02:17:39.366Z,99.90
2019-03-29T02:20:08.890Z,99.90
2019-03-29T02:22:38.357Z,99.90
2019-03-29T02:25:09.286Z,99.90
2019-03-29T02:27:38.747Z,99.90
2019-03-29T02:30:09.141Z,99.90
2019-03-29T02:32:38.602Z,99.90
2019-03-29T02:35:08.294Z,99.90
2019-03-29T02:37:37.770Z,99.90
2019-03-29T02:40:07.553Z,99.90
2019-03-29T02:42:37.038Z,99.90
2019-03-29T02:45:07.010Z,99.90
2019-03-29T02:47:36.499Z,99.90
2019-03-29T02:50:08.643Z,99.90
2019-03-29T02:52:37.994Z,99.90
2019-03-29T02:55:08.001Z,99.90
2019-03-29T02:57:37.525Z,99.90
2019-03-29T03:00:09.423Z,99.90
2019-03-29T03:02:39.059Z,99.90
2019-03-29T03:05:09.870Z,99.90
2019-03-29T03:07:39.329Z,99.90
2019-03-29T03:10:11.968Z,99.90
2019-03-29T03:12:41.414Z,99.90
2019-03-29T03:15:12.485Z,99.90
2019-03-29T03:17:41.935Z,99.90
2019-03-29T03:20:15.386Z,99.90
2019-03-29T03:22:44.009Z,99.90
2019-03-29T03:25:13.609Z,99.90
2019-03-29T03:27:43.061Z,99.90
2019-03-29T03:30:13.072Z,99.90
2019-03-29T03:32:42.723Z,99.90
2019-03-29T03:35:12.606Z,99.90
2019-03-29T03:37:42.107Z,99.90
2019-03-29T03:40:12.620Z,99.90
2019-03-29T03:42:42.093Z,99.90
2019-03-29T03:45:11.879Z,99.90
2019-03-29T03:47:41.324Z,99.90
2019-03-29T03:50:35.086Z,99.90
2019-03-29T03:53:05.000Z,99.90
2019-03-29T03:55:38.246Z,99.90
2019-03-29T03:58:08.930Z,99.90
2019-03-29T04:00:50.458Z,99.90
2019-03-29T04:03:20.074Z,99.90
2019-03-29T04:05:50.284Z,99.90
2019-03-29T04:08:20.374Z,99.90
2019-03-29T04:10:49.836Z,99.90
2019-03-29T04:13:19.365Z,99.90
2019-03-29T04:15:48.909Z,99.90
2019-03-29T04:18:18.431Z,99.90
2019-03-29T04:20:47.969Z,99.90
2019-03-29T04:23:17.481Z,99.90
2019-03-29T04:25:46.948Z,99.90
2019-03-29T04:28:16.393Z,99.90
2019-03-29T04:30:45.861Z,99.90
2019-03-29T04:33:15.322Z,99.90
2019-03-29T04:35:44.796Z,99.90
2019-03-29T04:38:14.261Z,99.90
2019-03-29T04:40:43.710Z,99.90
2019-03-29T04:43:13.162Z,99.90
2019-03-29T04:45:42.627Z,99.90
2019-03-29T04:48:12.080Z,99.90
2019-03-29T04:50:41.613Z,99.90
2019-03-29T04:53:11.081Z,99.90
2019-03-29T04:55:40.570Z,99.90
2019-03-29T04:58:10.197Z,99.90
2019-03-29T05:00:39.909Z,99.90
2019-03-29T05:03:09.393Z,99.90
2019-03-29T05:05:38.861Z,99.90
2019-03-29T05:08:08.309Z,99.90
2019-03-29T05:10:37.777Z,99.90
2019-03-29T05:13:07.225Z,99.90
2019-03-29T05:15:36.714Z,99.90
2019-03-29T05:18:06.137Z,99.90
2019-03-29T05:20:35.606Z,99.90
2019-03-29T05:23:05.054Z,99.90
2019-03-29T05:25:34.601Z,99.90
2019-03-29T05:28:04.501Z,99.90
2019-03-29T05:30:33.966Z,99.90
2019-03-29T05:33:03.413Z,99.90
2019-03-29T05:35:32.912Z,99.90
2019-03-29T05:38:02.354Z,99.90
2019-03-29T05:40:35.131Z,99.90
2019-03-29T05:43:02.921Z,99.90
2019-03-29T05:45:32.396Z,99.90
2019-03-29T05:48:01.842Z,99.90
2019-03-29T05:50:31.300Z,99.90
2019-03-29T05:53:00.758Z,99.90
2019-03-29T05:55:32.939Z,99.90
2019-03-29T05:58:01.304Z,99.90
2019-03-29T06:00:30.770Z,99.90
2019-03-29T06:03:00.222Z,99.90
2019-03-29T06:05:29.693Z,99.90
2019-03-29T06:07:59.135Z,99.90
2019-03-29T06:10:28.626Z,99.90
2019-03-29T06:12:58.070Z,99.90
2019-03-29T06:15:27.538Z,99.90
2019-03-29T06:18:16.335Z,99.90
2019-03-29T06:20:45.808Z,99.90
2019-03-29T06:23:15.269Z,99.90
2019-03-29T06:25:44.840Z,99.90
2019-03-29T06:28:14.291Z,99.90
2019-03-29T06:30:43.782Z,99.90
2019-03-29T06:33:14.380Z,99.90
2019-03-29T06:35:46.291Z,99.90
2019-03-29T06:38:16.483Z,99.90
2019-03-29T06:40:45.968Z,99.90
2019-03-29T06:43:15.427Z,99.90
2019-03-29T06:45:48.036Z,99.90
2019-03-29T06:48:16.932Z,99.90
2019-03-29T06:50:46.449Z,99.90
2019-03-29T06:53:15.873Z,99.90
2019-03-29T06:55:45.354Z,99.90
2019-03-29T06:58:14.807Z,99.90
2019-03-29T07:00:46.611Z,99.90
2019-03-29T07:03:15.378Z,99.90
2019-03-29T07:05:44.854Z,99.90
2019-03-29T07:08:14.326Z,99.90
2019-03-29T07:10:43.833Z,99.90
2019-03-29T07:13:13.278Z,99.90
2019-03-29T07:15:42.734Z,99.90
2019-03-29T07:18:12.234Z,99.90
2019-03-29T07:20:41.974Z,99.90
2019-03-29T07:23:11.467Z,99.90
2019-03-29T07:25:40.926Z,99.90
2019-03-29T07:28:10.408Z,99.90
2019-03-29T07:30:39.877Z,99.90
2019-03-29T07:33:09.367Z,99.90
2019-03-29T07:35:38.822Z,99.90
2019-03-29T07:38:08.327Z,99.90
2019-03-29T07:40:37.769Z,99.90
2019-03-29T07:43:07.254Z,99.90
2019-03-29T07:45:36.710Z,99.90
2019-03-29T07:48:06.194Z,99.90
2019-03-29T07:50:35.642Z,99.90
2019-03-29T07:53:05.123Z,99.90
2019-03-29T07:55:37.229Z,99.90
2019-03-29T07:58:05.684Z,99.90
2019-03-29T08:00:35.141Z,99.90
2019-03-29T08:03:04.634Z,99.90
2019-03-29T08:05:35.445Z,99.90
2019-03-29T08:08:05.095Z,99.90
2019-03-29T08:10:34.539Z,99.90
2019-03-29T08:13:04.184Z,99.90
2019-03-29T08:15:33.658Z,99.90
2019-03-29T08:18:03.131Z,99.90
2019-03-29T08:20:43.785Z,99.90
2019-03-29T08:23:03.771Z,99.90
2019-03-29T08:25:33.233Z,99.90
2019-03-29T08:28:02.716Z,99.90
2019-03-29T08:30:32.306Z,99.90
2019-03-29T08:33:01.792Z,99.90
2019-03-29T08:35:31.274Z,99.90
2019-03-29T08:38:00.770Z,99.90
2019-03-29T08:40:30.244Z,99.90
2019-03-29T08:42:59.726Z,99.90
2019-03-29T08:45:29.199Z,99.90
2019-03-29T08:47:58.678Z,99.90
2019-03-29T08:50:28.139Z,99.90
2019-03-29T08:52:57.622Z,99.90
2019-03-29T08:55:27.085Z,99.90
2019-03-29T08:57:56.586Z,99.90
2019-03-29T09:00:30.481Z,99.90
2019-03-29T09:03:00.035Z,99.90
2019-03-29T09:05:29.557Z,99.90
2019-03-29T09:07:59.978Z,99.90
2019-03-29T09:10:29.697Z,99.90
2019-03-29T09:12:59.264Z,99.90
2019-03-29T09:15:28.713Z,99.90
2019-03-29T09:18:00.029Z,99.90
2019-03-29T09:20:29.351Z,99.90
2019-03-29T09:22:58.811Z,99.90
2019-03-29T09:25:28.271Z,99.90
2019-03-29T09:27:57.817Z,99.90
2019-03-29T09:30:27.321Z,99.90
2019-03-29T09:32:56.771Z,99.90
2019-03-29T09:35:26.236Z,99.90
2019-03-29T09:37:56.676Z,99.90
2019-03-29T09:40:26.415Z,99.90
2019-03-29T09:43:06.736Z,99.90
2019-03-29T09:45:27.002Z,99.90
2019-03-29T09:47:56.474Z,99.90
2019-03-29T09:50:25.960Z,99.90
2019-03-29T09:52:55.450Z,99.90
2019-03-29T09:55:24.899Z,98.00
2019-03-29T09:57:54.406Z,99.90
2019-03-29T10:00:24.010Z,99.90
2019-03-29T10:02:53.608Z,97.10
2019-03-29T10:05:23.104Z,98.00
2019-03-29T10:07:52.579Z,97.50
2019-03-29T10:10:22.036Z,97.90
2019-03-29T10:12:51.539Z,98.10
2019-03-29T10:15:20.995Z,98.00
2019-03-29T10:17:50.474Z,98.10
2019-03-29T10:20:19.958Z,95.00
2019-03-29T10:22:49.455Z,97.70
2019-03-29T10:25:20.205Z,98.60
2019-03-29T10:27:49.912Z,96.90
2019-03-29T10:30:37.611Z,97.70
2019-03-29T10:33:07.192Z,96.20
2019-03-29T10:35:50.859Z,94.50
2019-03-29T10:38:08.869Z,94.80
2019-03-29T10:40:38.471Z,95.70
2019-03-29T10:43:08.997Z,95.70
2019-03-29T10:45:40.660Z,96.00
2019-03-29T10:48:09.650Z,93.60
2019-03-29T10:50:39.149Z,95.10
2019-03-29T10:53:08.610Z,94.20
2019-03-29T10:55:38.102Z,95.10
2019-03-29T10:58:09.685Z,94.80
2019-03-29T11:00:39.909Z,93.90
2019-03-29T11:03:09.709Z,92.60
2019-03-29T11:05:39.330Z,92.90
2019-03-29T11:08:11.739Z,94.00
2019-03-29T11:10:40.298Z,92.80
2019-03-29T11:13:14.140Z,94.10
2019-03-29T11:15:40.871Z,93.30
2019-03-29T11:18:10.395Z,91.70
2019-03-29T11:20:39.955Z,93.10
2019-03-29T11:23:09.431Z,96.40
2019-03-29T11:25:38.990Z,90.40
2019-03-29T11:28:08.451Z,91.90
2019-03-29T11:30:42.384Z,91.30
2019-03-29T11:33:09.038Z,90.30
2019-03-29T11:35:38.509Z,90.50
2019-03-29T11:38:09.029Z,90.10
2019-03-29T11:40:38.521Z,90.70
2019-03-29T11:43:08.053Z,87.40
2019-03-29T11:45:37.606Z,91.00
2019-03-29T11:48:09.136Z,89.70
2019-03-29T11:50:38.355Z,88.40
2019-03-29T11:53:07.814Z,88.80
2019-03-29T11:55:37.370Z,91.30
2019-03-29T11:58:06.840Z,91.90
2019-03-29T12:00:37.655Z,86.90
2019-03-29T12:03:09.356Z,90.00
2019-03-29T12:05:38.699Z,90.70
2019-03-29T12:08:08.175Z,93.10
2019-03-29T12:10:37.995Z,94.10
2019-03-29T12:13:08.863Z,92.90
2019-03-29T12:15:38.878Z,91.50
2019-03-29T12:18:09.584Z,92.10
2019-03-29T12:20:39.081Z,91.10
2019-03-29T12:23:08.530Z,91.40
2019-03-29T12:25:38.020Z,90.40
2019-03-29T12:28:07.550Z,89.60
2019-03-29T12:30:37.508Z,90.30
2019-03-29T12:33:07.043Z,81.60
2019-03-29T12:35:36.528Z,84.20
2019-03-29T12:38:06.063Z,85.10
2019-03-29T12:40:35.566Z,86.50
2019-03-29T12:43:05.038Z,83.90
2019-03-29T12:45:34.542Z,86.70
2019-03-29T12:48:04.340Z,79.60
2019-03-29T12:50:33.896Z,81.30
2019-03-29T12:53:03.365Z,83.20
2019-03-29T12:55:32.839Z,87.30
2019-03-29T12:58:02.310Z,87.70
2019-03-29T13:00:31.858Z,82.70
2019-03-29T13:03:01.318Z,77.20
2019-03-29T13:05:30.802Z,81.20
2019-03-29T13:08:00.268Z,75.20
2019-03-29T13:10:29.822Z,73.80
2019-03-29T13:13:00.781Z,73.60
2019-03-29T13:15:30.614Z,90.00
2019-03-29T13:18:00.065Z,72.90
2019-03-29T13:20:29.621Z,73.50
2019-03-29T13:22:59.169Z,77.10
2019-03-29T13:25:28.715Z,80.30
2019-03-29T13:27:59.515Z,82.10
2019-03-29T13:30:29.271Z,85.40
2019-03-29T13:32:58.742Z,84.40
2019-03-29T13:35:28.763Z,78.80
2019-03-29T13:37:58.223Z,83.30
2019-03-29T13:40:27.708Z,87.40
2019-03-29T13:42:57.171Z,84.20
2019-03-29T13:45:28.035Z,66.90
2019-03-29T13:47:57.707Z,78.50
2019-03-29T13:50:27.282Z,68.50
2019-03-29T13:52:56.721Z,76.70
2019-03-29T13:55:26.209Z,66.70
2019-03-29T13:57:56.738Z,69.50
2019-03-29T14:00:26.241Z,71.40
2019-03-29T14:02:55.706Z,60.40
2019-03-29T14:05:25.209Z,62.60
2019-03-29T14:07:54.663Z,64.90
2019-03-29T14:10:24.173Z,63.70
2019-03-29T14:12:53.617Z,63.80
2019-03-29T14:15:23.132Z,61.20
2019-03-29T14:17:52.585Z,62.00
2019-03-29T14:20:32.533Z,67.30
2019-03-29T14:23:03.022Z,77.30
2019-03-29T14:25:32.616Z,73.10
2019-03-29T14:28:02.068Z,64.40
2019-03-29T14:30:31.518Z,67.30
2019-03-29T14:33:02.071Z,61.70
2019-03-29T14:35:31.538Z,69.70
2019-03-29T14:38:01.011Z,62.60
2019-03-29T14:40:30.468Z,66.20
2019-03-29T14:42:59.941Z,62.60
2019-03-29T14:45:29.398Z,71.90
2019-03-29T14:47:58.872Z,75.50
2019-03-29T14:50:29.413Z,62.20
2019-03-29T14:52:58.900Z,66.00
2019-03-29T14:55:28.353Z,60.80
2019-03-29T14:57:57.840Z,70.60
2019-03-29T15:00:38.403Z,59.60
2019-03-29T15:03:07.884Z,57.70
2019-03-29T15:05:37.325Z,64.80
2019-03-29T15:08:07.865Z,62.70
2019-03-29T15:10:37.469Z,58.10
2019-03-29T15:13:06.964Z,55.70
2019-03-29T15:15:36.417Z,58.10
2019-03-29T15:18:05.957Z,60.90
2019-03-29T15:20:35.411Z,58.00
2019-03-29T15:23:05.005Z,56.60
2019-03-29T15:25:34.489Z,57.00
2019-03-29T15:28:03.954Z,59.50
2019-03-29T15:30:33.424Z,56.70
2019-03-29T15:33:02.900Z,54.10
2019-03-29T15:35:32.356Z,61.90
2019-03-29T15:38:01.852Z,60.60
2019-03-29T15:40:31.302Z,64.10
2019-03-29T15:43:00.785Z,60.60
2019-03-29T15:45:30.231Z,66.10
2019-03-29T15:47:59.734Z,71.40
2019-03-29T15:50:29.182Z,79.40
2019-03-29T15:52:58.657Z,71.90
2019-03-29T15:55:28.185Z,78.80
2019-03-29T15:57:57.601Z,69.20
2019-03-29T16:00:27.057Z,71.90
2019-03-29T16:02:56.705Z,72.10
2019-03-29T16:05:26.162Z,78.80
2019-03-29T16:07:55.638Z,78.30
2019-03-29T16:10:25.120Z,86.20
2019-03-29T16:12:54.593Z,83.00
2019-03-29T16:15:34.893Z,78.80
2019-03-29T16:17:55.149Z,76.80
2019-03-29T16:20:24.638Z,78.50
2019-03-29T16:22:54.081Z,75.50
2019-03-29T16:25:23.536Z,77.80
2019-03-29T16:27:53.010Z,78.50
2019-03-29T16:30:22.937Z,77.30
2019-03-29T16:32:52.429Z,80.00
2019-03-29T16:35:21.886Z,81.70
2019-03-29T16:37:57.003Z,80.60
2019-03-29T16:40:22.438Z,69.20
2019-03-29T16:42:51.923Z,70.10
2019-03-29T16:45:21.396Z,69.00
2019-03-29T16:47:50.874Z,75.10
2019-03-29T16:50:20.351Z,82.50
2019-03-29T16:52:49.825Z,86.70
2019-03-29T16:55:19.290Z,82.90
2019-03-29T16:57:48.854Z,89.40
2019-03-29T17:00:18.382Z,90.40
2019-03-29T17:02:47.863Z,88.20
2019-03-29T17:05:17.335Z,91.40
2019-03-29T17:07:46.821Z,91.00
2019-03-29T17:10:17.267Z,93.30
2019-03-29T17:12:46.742Z,94.30
2019-03-29T17:15:16.370Z,92.70
2019-03-29T17:17:45.813Z,92.40
2019-03-29T17:20:15.299Z,91.80
2019-03-29T17:22:44.745Z,92.90
2019-03-29T17:25:14.229Z,92.10
2019-03-29T17:27:43.685Z,92.60
2019-03-29T17:30:15.130Z,93.90
2019-03-29T17:32:45.075Z,94.20
2019-03-29T17:35:14.885Z,95.60
2019-03-29T17:37:44.361Z,97.10
2019-03-29T17:40:13.978Z,97.20
2019-03-29T17:42:43.506Z,98.90
2019-03-29T17:45:13.123Z,99.70
2019-03-29T17:47:42.569Z,99.90
2019-03-29T17:50:12.208Z,99.90
2019-03-29T17:52:43.551Z,99.90
2019-03-29T17:55:13.031Z,99.90
2019-03-29T17:57:42.485Z,99.90
2019-03-29T18:00:13.835Z,99.90
2019-03-29T18:02:43.297Z,99.90
2019-03-29T18:05:12.861Z,99.90
2019-03-29T18:07:42.333Z,99.90
2019-03-29T18:10:11.955Z,99.90
2019-03-29T18:12:41.401Z,99.90
2019-03-29T18:15:11.237Z,99.90
2019-03-29T18:17:40.698Z,99.90
2019-03-29T18:20:10.814Z,99.90
2019-03-29T18:22:40.265Z,99.90
2019-03-29T18:25:09.876Z,99.90
2019-03-29T18:27:39.334Z,99.90
2019-03-29T18:30:10.830Z,99.90
2019-03-29T18:32:40.358Z,99.90
2019-03-29T18:35:10.266Z,99.90
2019-03-29T18:37:39.786Z,99.90
2019-03-29T18:40:25.037Z,99.90
2019-03-29T18:42:55.430Z,99.90
2019-03-29T18:45:24.896Z,99.90
2019-03-29T18:47:54.365Z,99.90
2019-03-29T18:50:23.833Z,99.90
2019-03-29T18:52:54.254Z,99.90
2019-03-29T18:55:23.744Z,99.90
2019-03-29T18:57:53.190Z,99.90
2019-03-29T19:00:35.166Z,99.90
2019-03-29T19:03:04.974Z,99.90
2019-03-29T19:05:34.511Z,99.90
2019-03-29T19:08:04.023Z,99.90
2019-03-29T19:10:33.521Z,99.90
2019-03-29T19:13:02.977Z,99.90
2019-03-29T19:15:32.449Z,99.90
2019-03-29T19:18:01.902Z,99.90
2019-03-29T19:20:31.366Z,99.90
2019-03-29T19:23:00.821Z,99.90
2019-03-29T19:25:30.278Z,99.90
2019-03-29T19:27:59.737Z,99.90
2019-03-29T19:30:29.221Z,99.90
2019-03-29T19:32:58.662Z,99.90
2019-03-29T19:35:28.121Z,99.90
2019-03-29T19:37:57.578Z,99.90
2019-03-29T19:40:27.044Z,99.90
2019-03-29T19:42:57.570Z,99.90
2019-03-29T19:45:27.041Z,99.90
2019-03-29T19:47:56.495Z,99.90
2019-03-29T19:50:25.963Z,99.90
2019-03-29T19:52:55.436Z,99.90
2019-03-29T19:55:24.893Z,99.90
2019-03-29T19:57:54.372Z,99.90
2019-03-29T20:00:26.880Z,99.90
2019-03-29T20:02:56.327Z,99.90
2019-03-29T20:05:28.862Z,99.90
2019-03-29T20:07:58.311Z,99.90
2019-03-29T20:10:27.799Z,99.90
2019-03-29T20:12:57.477Z,99.90
2019-03-29T20:15:26.955Z,99.90
2019-03-29T20:17:56.479Z,99.90
2019-03-29T20:20:26.900Z,99.90
2019-03-29T20:22:57.611Z,99.90
2019-03-29T20:25:27.083Z,99.90
2019-03-29T20:27:58.284Z,99.90
2019-03-29T20:30:28.741Z,99.90
2019-03-29T20:32:58.194Z,99.90
2019-03-29T20:35:27.662Z,99.90
2019-03-29T20:37:57.115Z,99.90
2019-03-29T20:40:26.591Z,99.90
2019-03-29T20:42:56.058Z,99.90
2019-03-29T20:45:25.586Z,99.90
2019-03-29T20:47:55.040Z,99.90
2019-03-29T20:50:24.508Z,99.90
2019-03-29T20:52:53.984Z,99.90
2019-03-29T20:55:23.486Z,99.90
2019-03-29T20:57:52.956Z,99.90
2019-03-29T21:00:22.498Z,99.90
2019-03-29T21:02:52.063Z,99.90
2019-03-29T21:05:21.512Z,99.90
2019-03-29T21:07:51.059Z,99.90
2019-03-29T21:10:20.529Z,99.90
2019-03-29T21:12:50.034Z,99.90
2019-03-29T21:15:19.604Z,99.90
2019-03-29T21:17:56.476Z,99.90
2019-03-29T21:20:20.162Z,99.90
2019-03-29T21:22:49.647Z,99.90
2019-03-29T21:25:19.122Z,99.90
2019-03-29T21:27:48.599Z,99.90
2019-03-29T21:30:19.839Z,99.90
2019-03-29T21:32:49.378Z,99.90
2019-03-29T21:35:19.714Z,99.90
2019-03-29T21:37:49.249Z,99.90
2019-03-29T21:40:18.807Z,99.90
2019-03-29T21:43:01.653Z,99.90
2019-03-29T21:45:31.406Z,99.90
2019-03-29T21:48:23.852Z,99.90
2019-03-29T21:50:31.998Z,99.90
2019-03-29T21:53:01.493Z,99.90
2019-03-29T21:55:30.938Z,99.90
2019-03-29T21:58:00.414Z,99.90
2019-03-29T22:00:29.886Z,99.90
2019-03-29T22:02:59.360Z,99.90
2019-03-29T22:05:28.833Z,99.90
2019-03-29T22:07:58.307Z,99.90
2019-03-29T22:10:27.763Z,99.90
2019-03-29T22:12:57.242Z,99.90
2019-03-29T22:15:26.699Z,99.90
2019-03-29T22:17:56.182Z,99.90
2019-03-29T22:20:25.655Z,99.90
2019-03-29T22:22:55.132Z,99.90
2019-03-29T22:25:24.669Z,99.90
2019-03-29T22:27:54.166Z,99.90
2019-03-29T22:30:23.639Z,99.90
2019-03-29T22:32:53.114Z,99.90
2019-03-29T22:35:22.570Z,99.90
2019-03-29T22:37:52.067Z,99.90
2019-03-29T22:40:21.514Z,99.90
2019-03-29T22:42:52.063Z,99.90
2019-03-29T22:45:21.514Z,99.90
2019-03-29T22:47:50.995Z,99.90
2019-03-29T22:50:20.442Z,99.90
2019-03-29T22:52:49.926Z,99.90
2019-03-29T22:55:19.379Z,99.90
2019-03-29T22:57:48.859Z,99.90
2019-03-29T23:00:25.914Z,99.90
2019-03-29T23:02:57.079Z,99.90
2019-03-29T23:05:26.558Z,99.90
2019-03-29T23:07:56.022Z,99.90
2019-03-29T23:10:25.487Z,99.90
2019-03-29T23:12:54.994Z,99.90
2019-03-29T23:15:24.446Z,99.90
2019-03-29T23:17:53.927Z,99.90
2019-03-29T23:20:23.384Z,99.90
2019-03-29T23:22:52.866Z,99.90
2019-03-29T23:25:22.314Z,99.90
2019-03-29T23:27:51.796Z,99.90
2019-03-29T23:30:21.663Z,99.90
2019-03-29T23:32:51.147Z,99.90
2019-03-29T23:35:20.599Z,99.90
2019-03-29T23:37:50.147Z,99.90
2019-03-29T23:40:19.598Z,99.90
2019-03-29T23:42:49.084Z,99.90
2019-03-29T23:45:19.613Z,99.90
2019-03-29T23:47:49.099Z,99.90
2019-03-29T23:50:18.556Z,99.90
2019-03-29T23:52:48.094Z,99.90
2019-03-29T23:55:17.618Z,99.90
2019-03-29T23:57:47.118Z,99.90
